Terminal Aerodrome Forecast
Issued by NWS

Home | Current Version | Previous Version | Text Only | Print | Product List | Glossary On
Versions: 1 2 3 4 5 6 7 8 9 10 11 12 13 14 15 16 17
000
FTUS46 KSGX 190500
TAFSNA
TAF
KSNA 190537Z 1906/2006 VRB04KT P6SM SCT050
     FM192100 21007KT P6SM SCT030 BKN050
     FM200100 VRB04KT P6SM SCT025 BKN040=

USA.gov is the U.S. government's official web portal to all federal, state and local government web resources and services.